Time;durP1;ratioP1;P1;durP2;ratioP2;P2;SDS_P1;SDS_P2;PMS_P1;PMS_P2;Temp;Humidity;BMP_temperature;BMP_pressure;BME280_temperature;BME280_humidity;BME280_pressure;Samples;Min_cycle;Max_cycle;Signal;HPM_P1;HPM_P2
2024/02/27 00:00:41;;;;;;;9.60;2.90;;;;;;;;;;4861790;29;20202;-80
2024/02/27 00:03:08;;;;;;;12.77;3.80;;;;;;;;;;4865393;29;23001;-80
2024/02/27 00:05:37;;;;;;;16.20;6.83;;;;;;;;;;4863711;29;20224;-80
2024/02/27 00:08:04;;;;;;;12.77;2.27;;;;;;;;;;4861727;29;20210;-80
2024/02/27 00:10:32;;;;;;;9.33;2.00;;;;;;;;;;4861126;29;20286;-79
2024/02/27 00:12:59;;;;;;;9.47;1.90;;;;;;;;;;4874175;29;20209;-80
2024/02/27 00:15:27;;;;;;;8.43;1.83;;;;;;;;;;4879725;29;20237;-80
2024/02/27 00:17:54;;;;;;;8.93;2.00;;;;;;;;;;4879645;29;20272;-80
2024/02/27 00:20:21;;;;;;;9.37;2.07;;;;;;;;;;4879570;29;20294;-80
2024/02/27 00:22:49;;;;;;;7.70;1.80;;;;;;;;;;4879757;29;20212;-80
2024/02/27 00:25:16;;;;;;;11.47;1.73;;;;;;;;;;4879435;29;20212;-80
2024/02/27 00:27:44;;;;;;;10.27;1.87;;;;;;;;;;4879838;29;20206;-79
2024/02/27 00:30:12;;;;;;;9.67;2.00;;;;;;;;;;4877634;29;20245;-80
2024/02/27 00:32:39;;;;;;;10.80;1.87;;;;;;;;;;4863600;29;20218;-79
2024/02/27 00:35:07;;;;;;;7.00;1.90;;;;;;;;;;4875455;29;20580;-80
2024/02/27 00:37:34;;;;;;;7.93;2.00;;;;;;;;;;4879668;29;20244;-79
2024/02/27 00:40:04;;;;;;;9.53;2.03;;;;;;;;;;4874252;29;20229;-78
2024/02/27 00:42:31;;;;;;;10.33;2.17;;;;;;;;;;4879391;29;20198;-80
2024/02/27 00:44:58;;;;;;;7.77;1.73;;;;;;;;;;4879273;29;20640;-78
2024/02/27 00:47:25;;;;;;;11.83;2.20;;;;;;;;;;4878711;29;20663;-80
2024/02/27 00:49:52;;;;;;;10.57;2.40;;;;;;;;;;4879385;29;20205;-80
2024/02/27 00:52:19;;;;;;;11.50;1.90;;;;;;;;;;4878864;29;20248;-80
2024/02/27 00:54:46;;;;;;;12.40;1.77;;;;;;;;;;4879028;29;20209;-80
2024/02/27 00:57:15;;;;;;;9.63;3.10;;;;;;;;;;4878775;29;20321;-80
2024/02/27 00:59:42;;;;;;;12.87;2.07;;;;;;;;;;4878756;29;20679;-80
2024/02/27 01:02:09;;;;;;;8.73;2.00;;;;;;;;;;4878706;29;20284;-80
2024/02/27 01:04:36;;;;;;;6.13;1.47;;;;;;;;;;4878677;29;20284;-80
2024/02/27 01:07:04;;;;;;;9.40;2.03;;;;;;;;;;4878879;29;20224;-80
2024/02/27 01:09:33;;;;;;;11.07;2.07;;;;;;;;;;4878757;29;20675;-80
2024/02/27 01:12:00;;;;;;;6.77;1.47;;;;;;;;;;4878590;29;20691;-79
2024/02/27 01:14:28;;;;;;;9.33;1.67;;;;;;;;;;4879118;29;20625;-78
2024/02/27 01:16:57;;;;;;;12.27;1.77;;;;;;;;;;4878446;29;20289;-78
2024/02/27 01:19:24;;;;;;;10.33;2.20;;;;;;;;;;4878629;29;20205;-80
2024/02/27 01:21:51;;;;;;;9.77;2.00;;;;;;;;;;4878663;29;20233;-80
2024/02/27 01:24:19;;;;;;;9.37;1.93;;;;;;;;;;4878868;29;20229;-81
2024/02/27 01:26:46;;;;;;;5.77;1.63;;;;;;;;;;4878564;29;20214;-80
2024/02/27 01:29:13;;;;;;;8.63;2.63;;;;;;;;;;4878301;29;20277;-80
2024/02/27 01:31:42;;;;;;;9.27;1.93;;;;;;;;;;4877162;29;20298;-80
2024/02/27 01:34:09;;;;;;;10.30;1.90;;;;;;;;;;4877984;29;20202;-79
2024/02/27 01:36:36;;;;;;;13.90;2.30;;;;;;;;;;4878370;29;20237;-80
2024/02/27 01:39:04;;;;;;;11.17;2.57;;;;;;;;;;4878509;29;20584;-80
2024/02/27 01:41:31;;;;;;;11.60;1.97;;;;;;;;;;4878323;29;20206;-80
2024/02/27 01:43:58;;;;;;;8.53;1.57;;;;;;;;;;4878735;29;20292;-80
2024/02/27 01:46:25;;;;;;;9.20;2.40;;;;;;;;;;4878059;29;20309;-80
2024/02/27 01:48:55;;;;;;;9.27;1.80;;;;;;;;;;4878585;29;20204;-80
2024/02/27 01:51:23;;;;;;;11.33;1.83;;;;;;;;;;4877575;29;20243;-80
2024/02/27 01:53:54;;;;;;;7.93;1.70;;;;;;;;;;4870120;29;20206;-80
2024/02/27 01:56:23;;;;;;;10.83;1.87;;;;;;;;;;4876955;29;20210;-80
2024/02/27 01:58:51;;;;;;;7.77;1.60;;;;;;;;;;4878263;29;20208;-80
2024/02/27 02:01:19;;;;;;;9.43;2.13;;;;;;;;;;4877714;29;20236;-79
2024/02/27 02:03:47;;;;;;;10.87;1.83;;;;;;;;;;4877922;29;20235;-81
2024/02/27 02:06:16;;;;;;;10.23;1.63;;;;;;;;;;4877436;29;20202;-80
2024/02/27 02:08:43;;;;;;;11.07;1.97;;;;;;;;;;4877186;29;20205;-80
2024/02/27 02:11:11;;;;;;;7.37;2.00;;;;;;;;;;4878071;29;20198;-79
2024/02/27 02:13:38;;;;;;;7.67;2.00;;;;;;;;;;4877898;29;20198;-80
2024/02/27 02:16:06;;;;;;;9.27;1.73;;;;;;;;;;4877553;29;20289;-79
2024/02/27 02:18:33;;;;;;;9.80;2.20;;;;;;;;;;4877636;29;20354;-79
2024/02/27 02:21:02;;;;;;;8.17;1.80;;;;;;;;;;4877867;29;20209;-80
2024/02/27 02:23:29;;;;;;;9.50;2.10;;;;;;;;;;4878018;29;20210;-80
2024/02/27 02:25:57;;;;;;;10.50;2.30;;;;;;;;;;4877450;29;20228;-79
2024/02/27 02:28:25;;;;;;;10.87;2.00;;;;;;;;;;4877546;29;20224;-81
2024/02/27 02:30:52;;;;;;;11.73;2.07;;;;;;;;;;4877766;29;20200;-80
2024/02/27 02:33:19;;;;;;;11.03;1.97;;;;;;;;;;4877415;29;20202;-80
2024/02/27 02:35:46;;;;;;;10.13;1.90;;;;;;;;;;4877333;29;20306;-80
2024/02/27 02:38:15;;;;;;;10.90;2.07;;;;;;;;;;4877648;29;20328;-80
2024/02/27 02:40:41;;;;;;;10.60;2.20;;;;;;;;;;4877490;29;20206;-80
2024/02/27 02:43:08;;;;;;;11.20;2.30;;;;;;;;;;4876756;29;20206;-81
2024/02/27 02:45:35;;;;;;;9.57;2.07;;;;;;;;;;4877397;29;20201;-81
2024/02/27 02:48:02;;;;;;;9.90;2.00;;;;;;;;;;4877568;29;20285;-80
2024/02/27 02:50:30;;;;;;;9.73;2.50;;;;;;;;;;4877118;29;20284;-80
2024/02/27 02:52:57;;;;;;;13.10;2.27;;;;;;;;;;4877169;29;20557;-79
2024/02/27 02:55:26;;;;;;;12.47;2.77;;;;;;;;;;4877399;29;20328;-80
2024/02/27 02:57:54;;;;;;;13.83;2.30;;;;;;;;;;4877056;29;20325;-79
2024/02/27 03:00:21;;;;;;;7.70;1.90;;;;;;;;;;4877265;29;20232;-80
2024/02/27 03:02:48;;;;;;;11.93;2.07;;;;;;;;;;4877471;29;20675;-79
2024/02/27 03:05:16;;;;;;;9.30;2.23;;;;;;;;;;4877473;29;20212;-79
2024/02/27 03:07:44;;;;;;;10.57;2.20;;;;;;;;;;4877027;29;20209;-80
2024/02/27 03:10:11;;;;;;;11.63;2.40;;;;;;;;;;4877269;29;20212;-80
2024/02/27 03:12:40;;;;;;;7.87;1.87;;;;;;;;;;4876919;29;20286;-80
2024/02/27 03:15:07;;;;;;;9.50;2.07;;;;;;;;;;4877343;29;20217;-79
2024/02/27 03:17:34;;;;;;;8.67;1.77;;;;;;;;;;4877235;29;20233;-80
2024/02/27 03:20:05;;;;;;;8.43;2.30;;;;;;;;;;4879009;29;20229;-80
2024/02/27 03:22:32;;;;;;;11.70;2.40;;;;;;;;;;4880670;29;20202;-80
2024/02/27 03:25:04;;;;;;;13.80;2.53;;;;;;;;;;4880562;29;20766;-78
2024/02/27 03:27:31;;;;;;;11.90;2.17;;;;;;;;;;4880663;29;20206;-80
2024/02/27 03:29:59;;;;;;;10.13;2.03;;;;;;;;;;4880389;29;20237;-79
2024/02/27 03:32:27;;;;;;;9.50;2.00;;;;;;;;;;4880513;29;20771;-80
2024/02/27 03:34:54;;;;;;;7.67;1.90;;;;;;;;;;4880975;29;20206;-79
2024/02/27 03:37:21;;;;;;;9.10;2.20;;;;;;;;;;4880440;29;20265;-80
2024/02/27 03:39:48;;;;;;;11.07;2.13;;;;;;;;;;4880347;29;20202;-80
2024/02/27 03:42:16;;;;;;;8.53;2.17;;;;;;;;;;4880154;29;20749;-80
2024/02/27 03:44:46;;;;;;;8.63;2.10;;;;;;;;;;4879971;29;20297;-80
2024/02/27 03:47:15;;;;;;;9.87;2.30;;;;;;;;;;4880310;29;20197;-80
2024/02/27 03:49:42;;;;;;;9.07;2.13;;;;;;;;;;4880495;29;20202;-80
2024/02/27 03:52:09;;;;;;;10.93;1.80;;;;;;;;;;4880164;29;20606;-80
2024/02/27 03:54:36;;;;;;;8.47;1.80;;;;;;;;;;4880037;29;20217;-80
2024/02/27 03:57:04;;;;;;;7.57;1.70;;;;;;;;;;4878834;29;20293;-80
2024/02/27 03:59:31;;;;;;;10.83;2.13;;;;;;;;;;4877152;29;20285;-79
2024/02/27 04:04:35;;;;;;;8.03;1.87;;;;;;;;;;4925919;23;20323;-83
2024/02/27 04:07:02;;;;;;;9.37;1.97;;;;;;;;;;4898429;29;20638;-82
2024/02/27 04:09:30;;;;;;;10.23;1.87;;;;;;;;;;4898924;29;20296;-83
2024/02/27 04:11:57;;;;;;;8.33;2.23;;;;;;;;;;4899229;29;20201;-84
2024/02/27 04:14:25;;;;;;;12.10;2.27;;;;;;;;;;4898504;29;20586;-84
2024/02/27 04:16:52;;;;;;;10.67;2.10;;;;;;;;;;4898937;29;20296;-84
2024/02/27 04:19:19;;;;;;;13.90;2.30;;;;;;;;;;4897669;29;20781;-84
2024/02/27 04:21:48;;;;;;;8.97;1.60;;;;;;;;;;4898954;29;20213;-84
2024/02/27 04:24:15;;;;;;;11.63;2.20;;;;;;;;;;4898786;29;20236;-83
2024/02/27 04:26:42;;;;;;;13.40;2.43;;;;;;;;;;4898461;29;20637;-83
2024/02/27 04:29:10;;;;;;;9.87;2.03;;;;;;;;;;4898730;29;20215;-84
2024/02/27 04:31:37;;;;;;;8.17;1.90;;;;;;;;;;4897733;29;20197;-84
2024/02/27 04:34:04;;;;;;;9.30;2.20;;;;;;;;;;4897436;29;20276;-83
2024/02/27 04:36:31;;;;;;;9.90;1.93;;;;;;;;;;4892350;29;20220;-84
2024/02/27 04:39:01;;;;;;;9.93;1.87;;;;;;;;;;4896204;29;20269;-84
2024/02/27 04:41:28;;;;;;;10.77;2.07;;;;;;;;;;4898000;29;20212;-83
2024/02/27 04:43:55;;;;;;;6.03;1.77;;;;;;;;;;4898269;29;20202;-84
2024/02/27 04:46:23;;;;;;;9.20;1.70;;;;;;;;;;4898238;29;20215;-84
2024/02/27 04:48:51;;;;;;;8.33;1.90;;;;;;;;;;4883252;29;20208;-84
2024/02/27 04:51:18;;;;;;;7.00;1.60;;;;;;;;;;4897838;29;20248;-82
2024/02/27 04:53:45;;;;;;;8.30;2.00;;;;;;;;;;4898011;29;20567;-83
2024/02/27 04:56:14;;;;;;;7.03;1.87;;;;;;;;;;4898600;29;20648;-84
2024/02/27 04:58:41;;;;;;;6.90;2.00;;;;;;;;;;4898146;29;20315;-84
2024/02/27 05:01:11;;;;;;;10.30;1.80;;;;;;;;;;4898028;29;20297;-84
2024/02/27 05:03:38;;;;;;;6.03;1.73;;;;;;;;;;4898067;29;20317;-85
2024/02/27 05:06:06;;;;;;;6.53;1.60;;;;;;;;;;4898704;29;20288;-84
2024/02/27 05:08:33;;;;;;;11.17;1.90;;;;;;;;;;4898076;29;20240;-84
2024/02/27 05:11:00;;;;;;;6.67;2.40;;;;;;;;;;4897952;29;20236;-84
2024/02/27 05:13:29;;;;;;;7.00;1.80;;;;;;;;;;4897580;29;20305;-83
2024/02/27 05:15:56;;;;;;;8.13;2.13;;;;;;;;;;4897906;29;20615;-84
2024/02/27 05:18:23;;;;;;;10.53;2.03;;;;;;;;;;4897600;29;21152;-84
2024/02/27 05:20:51;;;;;;;9.43;2.00;;;;;;;;;;4898204;29;20281;-83
2024/02/27 05:23:18;;;;;;;8.03;1.80;;;;;;;;;;4896762;29;20303;-84
2024/02/27 05:25:45;;;;;;;9.47;2.07;;;;;;;;;;4897758;29;20662;-84
2024/02/27 05:28:13;;;;;;;8.80;1.70;;;;;;;;;;4897290;29;20292;-84
2024/02/27 05:30:44;;;;;;;7.07;1.80;;;;;;;;;;4897429;29;20205;-84
2024/02/27 05:33:11;;;;;;;6.77;1.40;;;;;;;;;;4897527;29;20292;-84
2024/02/27 05:35:38;;;;;;;9.50;1.90;;;;;;;;;;4897848;29;20233;-84
2024/02/27 05:38:06;;;;;;;9.47;1.80;;;;;;;;;;4897010;29;20237;-83
2024/02/27 05:40:33;;;;;;;7.20;1.70;;;;;;;;;;4897419;29;20293;-84
2024/02/27 05:43:00;;;;;;;7.57;1.73;;;;;;;;;;4897273;29;20308;-83
2024/02/27 05:45:28;;;;;;;10.33;1.90;;;;;;;;;;4897730;29;20264;-84
2024/02/27 05:47:59;;;;;;;9.33;2.13;;;;;;;;;;4897364;29;20217;-83
2024/02/27 05:50:26;;;;;;;6.60;1.83;;;;;;;;;;4897360;29;20243;-83
2024/02/27 05:52:53;;;;;;;10.00;1.90;;;;;;;;;;4897070;29;20299;-84
2024/02/27 05:55:21;;;;;;;7.27;2.13;;;;;;;;;;4897044;29;20208;-84
2024/02/27 05:57:48;;;;;;;8.27;1.73;;;;;;;;;;4896605;29;20324;-84
2024/02/27 06:00:16;;;;;;;4.87;1.60;;;;;;;;;;4897322;29;20287;-84
2024/02/27 06:02:43;;;;;;;5.00;1.60;;;;;;;;;;4897000;29;20240;-83
2024/02/27 06:05:12;;;;;;;8.67;1.73;;;;;;;;;;4896933;29;20209;-83
2024/02/27 06:07:39;;;;;;;10.33;1.90;;;;;;;;;;4896941;29;20252;-84
2024/02/27 06:10:07;;;;;;;9.80;1.80;;;;;;;;;;4896424;29;20261;-82
2024/02/27 06:12:35;;;;;;;8.30;1.87;;;;;;;;;;4896453;29;20212;-84
2024/02/27 06:15:03;;;;;;;8.77;1.50;;;;;;;;;;4897163;29;20252;-84
2024/02/27 06:17:30;;;;;;;10.17;1.63;;;;;;;;;;4896983;29;20197;-84
2024/02/27 06:20:00;;;;;;;5.37;1.40;;;;;;;;;;4896801;29;20265;-82
2024/02/27 06:22:29;;;;;;;8.13;1.57;;;;;;;;;;4896287;29;20662;-84
2024/02/27 06:24:56;;;;;;;6.63;1.57;;;;;;;;;;4896855;29;20216;-84
2024/02/27 06:27:23;;;;;;;9.07;1.70;;;;;;;;;;4896431;29;20646;-83
2024/02/27 06:29:50;;;;;;;9.40;1.47;;;;;;;;;;4897135;29;20219;-84
2024/02/27 06:32:18;;;;;;;4.77;1.37;;;;;;;;;;4896201;29;20253;-83
2024/02/27 06:34:45;;;;;;;8.57;1.77;;;;;;;;;;4895742;29;20284;-84
2024/02/27 06:37:13;;;;;;;7.37;1.93;;;;;;;;;;4896302;29;20279;-83
2024/02/27 06:39:42;;;;;;;7.23;1.87;;;;;;;;;;4895172;29;20221;-85
2024/02/27 06:42:09;;;;;;;9.17;1.83;;;;;;;;;;4896588;29;20201;-84
2024/02/27 06:44:38;;;;;;;8.20;2.10;;;;;;;;;;4896585;29;20273;-84
2024/02/27 06:47:06;;;;;;;7.93;2.00;;;;;;;;;;4892058;29;20206;-84
2024/02/27 06:49:33;;;;;;;9.67;2.00;;;;;;;;;;4877383;29;20257;-85
2024/02/27 06:52:00;;;;;;;8.67;2.27;;;;;;;;;;4877490;29;20301;-84
2024/02/27 06:54:27;;;;;;;8.43;1.90;;;;;;;;;;4878461;29;20302;-83
2024/02/27 06:56:56;;;;;;;7.13;1.83;;;;;;;;;;4881725;29;20208;-84
2024/02/27 06:59:23;;;;;;;7.40;1.83;;;;;;;;;;4881327;29;20312;-84
2024/02/27 07:01:50;;;;;;;7.50;1.70;;;;;;;;;;4891453;29;20229;-83
2024/02/27 07:04:18;;;;;;;9.53;1.93;;;;;;;;;;4899611;29;20254;-84
2024/02/27 07:06:45;;;;;;;5.47;2.47;;;;;;;;;;4900027;29;20667;-84
2024/02/27 07:09:12;;;;;;;8.70;1.90;;;;;;;;;;4900192;29;20296;-85
2024/02/27 07:11:39;;;;;;;7.77;2.10;;;;;;;;;;4900256;29;20291;-85
2024/02/27 07:14:08;;;;;;;8.90;2.27;;;;;;;;;;4900051;29;20642;-84
2024/02/27 07:16:35;;;;;;;8.90;2.17;;;;;;;;;;4899882;29;20670;-83
2024/02/27 07:19:05;;;;;;;10.00;2.30;;;;;;;;;;4900494;29;20321;-84
2024/02/27 07:21:35;;;;;;;6.87;1.67;;;;;;;;;;4900056;29;20206;-85
2024/02/27 07:24:02;;;;;;;7.23;1.83;;;;;;;;;;4899686;29;20307;-84
2024/02/27 07:26:29;;;;;;;8.20;1.87;;;;;;;;;;4899729;29;20291;-84
2024/02/27 07:28:56;;;;;;;7.07;2.13;;;;;;;;;;4900046;29;20201;-84
2024/02/27 07:31:25;;;;;;;8.93;2.30;;;;;;;;;;4899828;29;20209;-85
2024/02/27 07:33:52;;;;;;;12.60;2.30;;;;;;;;;;4898936;29;20205;-82
2024/02/27 07:36:20;;;;;;;7.20;2.33;;;;;;;;;;4881279;29;20296;-83
2024/02/27 07:38:47;;;;;;;6.17;1.73;;;;;;;;;;4896004;29;20236;-83
2024/02/27 07:41:14;;;;;;;7.47;2.00;;;;;;;;;;4899476;29;20288;-84
2024/02/27 07:43:41;;;;;;;8.80;1.83;;;;;;;;;;4899600;29;20617;-83
2024/02/27 07:46:08;;;;;;;5.87;1.57;;;;;;;;;;4899623;29;20763;-84
2024/02/27 07:48:37;;;;;;;5.80;1.90;;;;;;;;;;4899371;29;20648;-83
2024/02/27 07:51:04;;;;;;;8.30;2.10;;;;;;;;;;4899405;29;20201;-84
2024/02/27 07:53:31;;;;;;;9.70;2.03;;;;;;;;;;4899088;29;20304;-84
2024/02/27 07:55:58;;;;;;;9.00;1.67;;;;;;;;;;4899509;29;20209;-84
2024/02/27 07:58:26;;;;;;;9.63;3.17;;;;;;;;;;4898873;29;20782;-83
2024/02/27 08:00:53;;;;;;;7.57;2.87;;;;;;;;;;4899461;29;20288;-84
2024/02/27 08:03:20;;;;;;;6.73;1.90;;;;;;;;;;4898541;29;20784;-84
2024/02/27 08:05:49;;;;;;;6.23;1.90;;;;;;;;;;4898089;29;20212;-84
2024/02/27 08:08:16;;;;;;;7.33;2.90;;;;;;;;;;4898328;29;20737;-82
2024/02/27 08:10:43;;;;;;;9.73;2.67;;;;;;;;;;4898794;29;20240;-84
2024/02/27 08:13:11;;;;;;;8.87;2.90;;;;;;;;;;4887761;29;20750;-83
2024/02/27 08:15:38;;;;;;;8.53;2.30;;;;;;;;;;4880482;29;20208;-84
2024/02/27 08:18:05;;;;;;;7.13;1.80;;;;;;;;;;4879709;29;20285;-83
2024/02/27 08:20:32;;;;;;;4.23;1.40;;;;;;;;;;4879857;29;20308;-83
2024/02/27 08:23:01;;;;;;;8.03;1.90;;;;;;;;;;4879879;29;20208;-85
2024/02/27 08:25:28;;;;;;;6.07;1.60;;;;;;;;;;4879866;29;20296;-84
2024/02/27 08:27:55;;;;;;;7.32;1.75;;;;;;;;;;4884790;29;20585;-84
2024/02/27 08:30:23;;;;;;;7.63;1.77;;;;;;;;;;4889941;29;20682;-84
2024/02/27 08:32:50;;;;;;;7.35;1.63;;;;;;;;;;4897368;29;20213;-84
2024/02/27 08:35:17;;;;;;;5.13;1.35;;;;;;;;;;4888012;29;20241;-84
2024/02/27 08:37:44;;;;;;;7.32;1.65;;;;;;;;;;4890602;29;20267;-84
2024/02/27 08:40:13;;;;;;;6.97;1.80;;;;;;;;;;4897908;29;20260;-84
2024/02/27 08:42:41;;;;;;;6.10;1.65;;;;;;;;;;4898142;29;20291;-84
2024/02/27 08:45:09;;;;;;;4.53;1.65;;;;;;;;;;4898243;29;20292;-83
2024/02/27 08:47:36;;;;;;;7.63;1.95;;;;;;;;;;4897832;29;20686;-82
2024/02/27 08:50:04;;;;;;;6.75;1.75;;;;;;;;;;4898288;29;20304;-83
2024/02/27 08:52:31;;;;;;;3.97;1.27;;;;;;;;;;4893184;29;20206;-83
2024/02/27 08:54:58;;;;;;;5.50;1.70;;;;;;;;;;4879329;29;20787;-83
2024/02/27 08:57:27;;;;;;;6.20;1.50;;;;;;;;;;4895348;29;20694;-84
2024/02/27 08:59:54;;;;;;;3.67;1.40;;;;;;;;;;4897774;29;20332;-84
2024/02/27 09:02:23;;;;;;;6.18;1.60;;;;;;;;;;4884123;29;20856;-85
2024/02/27 09:04:50;;;;;;;7.65;1.92;;;;;;;;;;4892081;29;20237;-84
2024/02/27 09:07:18;;;;;;;7.18;1.45;;;;;;;;;;4890480;29;20292;-83
2024/02/27 09:09:46;;;;;;;5.82;1.48;;;;;;;;;;4894435;29;20225;-83
2024/02/27 09:12:13;;;;;;;6.00;1.60;;;;;;;;;;4893411;29;20212;-83
2024/02/27 09:26:56;;;;;;;9.60;2.08;;;;;;;;;;4901145;23;20240;-82
2024/02/27 09:29:23;;;;;;;9.00;2.22;;;;;;;;;;4895984;29;20295;-82
2024/02/27 09:31:52;;;;;;;5.82;1.65;;;;;;;;;;4897466;29;20236;-83
2024/02/27 09:34:20;;;;;;;8.73;1.92;;;;;;;;;;4897015;29;20299;-81
2024/02/27 09:36:47;;;;;;;9.48;2.00;;;;;;;;;;4897026;29;20208;-82
2024/02/27 09:39:14;;;;;;;6.97;2.10;;;;;;;;;;4878305;29;20236;-83
2024/02/27 09:41:48;;;;;;;5.90;1.65;;;;;;;;;;4878778;29;20233;-82
2024/02/27 09:44:17;;;;;;;10.40;2.03;;;;;;;;;;4878397;29;20213;-85
2024/02/27 09:46:44;;;;;;;10.25;2.00;;;;;;;;;;4897504;29;20217;-81
2024/02/27 09:49:13;;;;;;;5.05;1.58;;;;;;;;;;4896658;29;20296;-79
2024/02/27 09:51:41;;;;;;;7.93;1.92;;;;;;;;;;4896627;29;20292;-79
2024/02/27 09:54:09;;;;;;;8.40;1.77;;;;;;;;;;4903141;29;20232;-79
2024/02/27 09:56:36;;;;;;;7.45;1.95;;;;;;;;;;4911202;29;20220;-78
2024/02/27 09:59:04;;;;;;;6.53;1.55;;;;;;;;;;4892491;29;20239;-79
2024/02/27 10:01:37;;;;;;;9.55;1.88;;;;;;;;;;4884592;29;20209;-78
2024/02/27 10:04:04;;;;;;;23.25;4.25;;;;;;;;;;4892977;29;20304;-80
2024/02/27 10:06:33;;;;;;;10.85;1.77;;;;;;;;;;4899940;29;20214;-80
2024/02/27 10:09:01;;;;;;;10.23;1.75;;;;;;;;;;4915456;29;20639;-78
2024/02/27 10:11:29;;;;;;;8.95;1.90;;;;;;;;;;4913545;29;20205;-77
2024/02/27 10:13:56;;;;;;;9.77;1.98;;;;;;;;;;4906940;29;20208;-78
2024/02/27 10:16:25;;;;;;;6.18;1.75;;;;;;;;;;4912049;29;20283;-79
2024/02/27 10:18:53;;;;;;;7.80;1.67;;;;;;;;;;4913807;29;20296;-79
2024/02/27 10:21:20;;;;;;;5.55;1.70;;;;;;;;;;4915051;29;20235;-79
2024/02/27 10:23:48;;;;;;;6.47;1.52;;;;;;;;;;4895131;29;20284;-80
2024/02/27 10:26:17;;;;;;;7.65;1.85;;;;;;;;;;4902611;29;20233;-79
2024/02/27 10:28:44;;;;;;;6.55;2.00;;;;;;;;;;4905193;29;20231;-79
2024/02/27 10:31:13;;;;;;;6.50;1.70;;;;;;;;;;4911002;29;20232;-79
2024/02/27 10:33:41;;;;;;;4.97;1.50;;;;;;;;;;4903098;29;20289;-80
2024/02/27 10:36:11;;;;;;;4.37;1.50;;;;;;;;;;4889914;29;20209;-79
2024/02/27 10:38:38;;;;;;;7.43;2.00;;;;;;;;;;4895164;29;20252;-80
2024/02/27 10:41:05;;;;;;;5.90;1.60;;;;;;;;;;4909765;29;20340;-79
2024/02/27 10:43:34;;;;;;;6.77;1.77;;;;;;;;;;4905770;29;20295;-79
2024/02/27 10:46:01;;;;;;;7.63;2.13;;;;;;;;;;4910096;29;20214;-79
2024/02/27 10:48:29;;;;;;;6.80;1.80;;;;;;;;;;4902811;29;20636;-79
2024/02/27 10:50:56;;;;;;;31.30;5.60;;;;;;;;;;4915047;29;20303;-79
2024/02/27 10:53:26;;;;;;;9.40;1.73;;;;;;;;;;4907020;29;20292;-79
2024/02/27 10:55:55;;;;;;;5.47;2.00;;;;;;;;;;4899573;29;20213;-78
2024/02/27 10:58:22;;;;;;;3.83;1.80;;;;;;;;;;4897946;29;20652;-79
2024/02/27 11:00:50;;;;;;;6.13;1.50;;;;;;;;;;4900822;29;20267;-79
2024/02/27 11:03:17;;;;;;;6.40;1.57;;;;;;;;;;4914345;29;20696;-79
2024/02/27 11:05:46;;;;;;;5.97;1.67;;;;;;;;;;4914766;29;20208;-78
2024/02/27 11:08:14;;;;;;;7.45;1.60;;;;;;;;;;4914779;29;20292;-78
2024/02/27 11:10:42;;;;;;;6.32;1.85;;;;;;;;;;4906802;29;20214;-78
2024/02/27 11:13:10;;;;;;;4.55;1.73;;;;;;;;;;4914486;29;20211;-77
2024/02/27 11:15:39;;;;;;;8.70;2.10;;;;;;;;;;4914616;29;20291;-77
2024/02/27 11:18:08;;;;;;;4.00;1.60;;;;;;;;;;4914630;29;20211;-77
2024/02/27 11:20:36;;;;;;;8.65;1.70;;;;;;;;;;4914587;29;20227;-78
2024/02/27 11:23:04;;;;;;;10.50;2.03;;;;;;;;;;4914634;29;20292;-79
2024/02/27 11:25:32;;;;;;;5.63;1.77;;;;;;;;;;4903150;29;20296;-79
2024/02/27 11:28:00;;;;;;;7.33;1.93;;;;;;;;;;4904190;29;20323;-80
2024/02/27 11:30:29;;;;;;;11.00;1.85;;;;;;;;;;4890692;29;20296;-79
2024/02/27 11:32:57;;;;;;;7.00;1.83;;;;;;;;;;4888824;29;20198;-80
2024/02/27 11:35:27;;;;;;;5.90;1.37;;;;;;;;;;4895473;29;20212;-80
2024/02/27 11:37:54;;;;;;;7.27;1.47;;;;;;;;;;4895680;29;20219;-80
2024/02/27 11:40:35;;;;;;;9.03;1.60;;;;;;;;;;4896260;29;20239;-80
2024/02/27 11:43:04;;;;;;;6.30;1.50;;;;;;;;;;4899244;29;20201;-79
2024/02/27 11:45:33;;;;;;;8.27;1.67;;;;;;;;;;4898933;29;20801;-80
2024/02/27 11:48:00;;;;;;;3.23;1.53;;;;;;;;;;4899462;29;20205;-80
2024/02/27 11:50:46;;;;;;;5.87;1.63;;;;;;;;;;4899217;29;20612;-80
2024/02/27 11:53:32;;;;;;;8.17;1.77;;;;;;;;;;4899236;29;20305;-80
2024/02/27 11:55:59;;;;;;;5.33;1.77;;;;;;;;;;4899294;29;20208;-80
2024/02/27 11:58:28;;;;;;;4.73;1.50;;;;;;;;;;4898978;29;20378;-79
2024/02/27 12:00:55;;;;;;;5.37;1.70;;;;;;;;;;4898629;29;20325;-80
2024/02/27 12:03:22;;;;;;;5.47;1.80;;;;;;;;;;4892768;29;20631;-80
2024/02/27 12:05:50;;;;;;;5.73;1.63;;;;;;;;;;4884171;29;20214;-80
2024/02/27 12:08:21;;;;;;;6.40;1.60;;;;;;;;;;4880183;29;20212;-79
2024/02/27 12:10:48;;;;;;;5.93;1.90;;;;;;;;;;4880039;29;20205;-79
2024/02/27 12:13:16;;;;;;;8.03;2.10;;;;;;;;;;4879959;29;20202;-79
2024/02/27 12:15:44;;;;;;;4.30;1.50;;;;;;;;;;4879918;29;20202;-79
2024/02/27 12:18:12;;;;;;;8.40;1.70;;;;;;;;;;4880229;29;20319;-79
2024/02/27 12:20:39;;;;;;;5.67;1.60;;;;;;;;;;4885123;29;20228;-80
2024/02/27 12:23:07;;;;;;;5.57;1.53;;;;;;;;;;4899421;29;20649;-80
2024/02/27 12:25:41;;;;;;;6.10;1.40;;;;;;;;;;4900186;29;20212;-80
2024/02/27 12:28:08;;;;;;;8.63;1.70;;;;;;;;;;4917295;29;20346;-80
2024/02/27 12:30:36;;;;;;;6.73;1.80;;;;;;;;;;4916566;29;20239;-80
2024/02/27 12:33:06;;;;;;;6.32;1.67;;;;;;;;;;4916140;29;20267;-79
2024/02/27 12:35:34;;;;;;;7.53;1.80;;;;;;;;;;4917265;29;20236;-78
2024/02/27 12:38:01;;;;;;;4.68;1.45;;;;;;;;;;4907562;29;20304;-78
2024/02/27 12:40:28;;;;;;;4.97;1.57;;;;;;;;;;4898015;29;20789;-79
2024/02/27 12:42:55;;;;;;;10.32;2.00;;;;;;;;;;4898030;29;20201;-80
2024/02/27 12:45:22;;;;;;;4.38;1.20;;;;;;;;;;4898422;29;20778;-79
2024/02/27 12:47:51;;;;;;;4.55;1.50;;;;;;;;;;4898122;29;20576;-80
2024/02/27 12:50:22;;;;;;;6.88;1.58;;;;;;;;;;4898200;29;20292;-81
2024/02/27 12:52:50;;;;;;;3.95;1.40;;;;;;;;;;4897555;29;20212;-79
2024/02/27 12:55:17;;;;;;;7.13;1.60;;;;;;;;;;4897930;29;20303;-80
2024/02/27 12:57:44;;;;;;;5.53;1.23;;;;;;;;;;4898085;29;20207;-80
2024/02/27 13:00:12;;;;;;;4.15;1.30;;;;;;;;;;4898143;29;20570;-79
2024/02/27 13:02:39;;;;;;;6.07;1.80;;;;;;;;;;4893964;29;20205;-81
2024/02/27 13:05:08;;;;;;;5.97;1.83;;;;;;;;;;4897053;29;20279;-80
2024/02/27 13:07:38;;;;;;;5.95;1.25;;;;;;;;;;4897041;29;20583;-81
2024/02/27 13:10:06;;;;;;;4.55;1.50;;;;;;;;;;4895407;29;20209;-83
2024/02/27 13:12:33;;;;;;;4.13;1.52;;;;;;;;;;4895041;29;20673;-82
2024/02/27 13:15:00;;;;;;;5.97;1.63;;;;;;;;;;4897657;29;20264;-79
2024/02/27 13:17:28;;;;;;;4.57;1.38;;;;;;;;;;4897581;29;20322;-81
2024/02/27 13:19:55;;;;;;;4.35;1.48;;;;;;;;;;4907964;29;20295;-80
2024/02/27 13:22:22;;;;;;;3.43;1.30;;;;;;;;;;4916221;29;20201;-81
2024/02/27 13:24:51;;;;;;;6.27;1.43;;;;;;;;;;4916038;29;20200;-81
2024/02/27 13:27:18;;;;;;;3.77;1.30;;;;;;;;;;4915702;29;20276;-80
2024/02/27 13:29:45;;;;;;;6.33;1.50;;;;;;;;;;4913856;29;20228;-80
2024/02/27 13:32:12;;;;;;;3.80;1.20;;;;;;;;;;4897024;29;20212;-80
2024/02/27 13:34:39;;;;;;;5.37;1.40;;;;;;;;;;4904979;29;20744;-82
2024/02/27 13:37:06;;;;;;;5.80;1.50;;;;;;;;;;4909634;29;20288;-81
2024/02/27 13:39:34;;;;;;;5.87;1.73;;;;;;;;;;4912888;29;20296;-82
2024/02/27 13:42:03;;;;;;;5.43;1.30;;;;;;;;;;4915722;29;20236;-81
2024/02/27 13:44:30;;;;;;;5.17;1.50;;;;;;;;;;4915646;29;20200;-81
2024/02/27 13:46:57;;;;;;;4.37;1.40;;;;;;;;;;4915770;29;20211;-80
2024/02/27 13:49:25;;;;;;;9.30;2.00;;;;;;;;;;4916153;29;20237;-81
2024/02/27 13:51:52;;;;;;;9.00;1.37;;;;;;;;;;4915430;29;20231;-80
2024/02/27 13:54:19;;;;;;;4.83;1.20;;;;;;;;;;4915382;29;20255;-80
2024/02/27 13:56:46;;;;;;;4.80;1.27;;;;;;;;;;4915723;29;20228;-80
2024/02/27 13:59:15;;;;;;;7.07;1.37;;;;;;;;;;4915569;29;20197;-81
2024/02/27 14:01:42;;;;;;;4.70;1.50;;;;;;;;;;4915586;29;20264;-81
2024/02/27 14:04:09;;;;;;;3.87;1.20;;;;;;;;;;4883367;29;20297;-81
2024/02/27 14:06:36;;;;;;;4.57;1.47;;;;;;;;;;4896587;29;20297;-80
2024/02/27 14:09:04;;;;;;;5.37;1.43;;;;;;;;;;4894100;29;20283;-80
2024/02/27 14:11:31;;;;;;;6.63;1.20;;;;;;;;;;4897799;29;20209;-80
2024/02/27 14:13:59;;;;;;;5.27;1.27;;;;;;;;;;4896579;29;20257;-80
2024/02/27 14:16:28;;;;;;;5.10;1.70;;;;;;;;;;4915340;29;20275;-80
2024/02/27 14:18:55;;;;;;;5.17;1.60;;;;;;;;;;4915053;29;20206;-82
2024/02/27 14:21:22;;;;;;;4.57;1.60;;;;;;;;;;4877912;29;20349;-79
2024/02/27 14:23:49;;;;;;;3.83;1.30;;;;;;;;;;4877941;29;20221;-79
2024/02/27 14:26:16;;;;;;;5.23;1.50;;;;;;;;;;4913216;29;20319;-80
2024/02/27 14:28:44;;;;;;;5.47;1.10;;;;;;;;;;4915384;29;20208;-81
2024/02/27 14:31:11;;;;;;;4.03;1.30;;;;;;;;;;4915357;29;20283;-81
2024/02/27 14:33:40;;;;;;;5.00;1.50;;;;;;;;;;4915173;29;20224;-81
2024/02/27 14:36:07;;;;;;;6.47;1.10;;;;;;;;;;4915346;29;20207;-79
2024/02/27 14:38:34;;;;;;;5.47;1.30;;;;;;;;;;4900217;29;20363;-79
2024/02/27 14:41:01;;;;;;;4.27;1.33;;;;;;;;;;4911378;29;20224;-79
2024/02/27 14:43:29;;;;;;;5.00;1.00;;;;;;;;;;4915232;29;20216;-79
2024/02/27 14:45:56;;;;;;;4.13;1.63;;;;;;;;;;4914683;29;20671;-80
2024/02/27 14:48:24;;;;;;;3.27;1.10;;;;;;;;;;4914902;29;20284;-79
2024/02/27 14:50:52;;;;;;;3.50;1.10;;;;;;;;;;4912150;29;20249;-79
2024/02/27 14:53:19;;;;;;;4.60;1.30;;;;;;;;;;4895489;29;20717;-81
2024/02/27 14:55:47;;;;;;;3.03;1.07;;;;;;;;;;4895877;29;20204;-81
2024/02/27 14:58:16;;;;;;;7.53;1.47;;;;;;;;;;4895636;29;20288;-81